WATT/KOE METAR and TAF weather

Enter ICAO airport designator
Station Type Date Time Source
WATT METAR 2020/08/11 01:00 UTC NOAA

WATT 110100Z 36005KT 9999 FEW018 31/19 Q1015 NOSIG


Station Type Date Time Source
WATT Decoded METAR 2020/08/11 01:00 UTC NOAA

Station name not available
Aug 10, 2020 - 09:00 PM EDT / 2020.08.11 0100 UTC
Wind: from the N (360 degrees) at 6 MPH (5 KT):0
Visibility: greater than 7 mile(s):0
Sky conditions: mostly clear
Temperature: 87 F (31 C)
Dew Point: 66 F (19 C)
Relative Humidity: 48%
Pressure (altimeter): 29.97 in. Hg (1015 hPa)
ob: WATT 110100Z 36005KT 9999 FEW018 31/19 Q1015 NOSIG
cycle: 1

Station Type Date Time Source
WATT TAF 2020/08/10 18:00 UTC NOAA

TAF WATT 101700Z 1018/1118 09005KT 8000 BKN018
BECMG 1102/1104 30010KT
BECMG 1112/1114 12007KT

Example: see airport list